Aérodrome :
LOGIN :

S'inscrire | Disclaimer

   EN    FR    IT 

 










Légende :    VFR   VFR Marginal   IFR   IFR Intensif   IFR Très Intensif
Visi : 
Plafond : 
>= 8 km
>= 3000ft
5 à 8 km
1000 à 3000 ft
1500m à 5 km
500 à 1000 ft
800 à 1500m
200 à 500 ft
< 800m
< 200 ft
Symboles :   Orages  Brouillard  Fortes neiges  Fortes précipitations  Vent > 20 kt
SIGMETs :   Divers  Orages  Givrage  Turbulence  Onde Orograph.  Cendres Volcan.







- Altitude de l'aérodrome : 616 ft
- Code IATA : PUF
- Voir les cartes d'approche


LFBP - Pau

DERNIER METAR :
  • 211300Z AUTO 04006KT 360V070 CAVOK 24/16 Q1022 NOSIG

METARs EXPIRÉS :
  • 211230Z AUTO 05005KT 360V120 CAVOK 24/14 Q1022 NOSIG
  • 211200Z AUTO 02006KT 350V060 CAVOK 24/15 Q1022 NOSIG
  • 211130Z AUTO 05006KT 010V110 CAVOK 23/14 Q1022 NOSIG
  • 211100Z AUTO 05007KT 010V080 CAVOK 23/14 Q1023 NOSIG
  • 211030Z AUTO 07007KT 020V120 CAVOK 23/15 Q1023 NOSIG

TAF TAF LFBP
Valide du 21 à 12h jusqu'au 22 à 12h UTC


211100Z 2112/2212 06007KT CAVOK
BECMG 2117/2119 VRB02KT
PROB30
TEMPO 2203/2208 4500 BR BKN005
FM220900 28005KT CAVOK
Pas de NOTAMs connus pour ce terrain.



MET'MAP, la Météo Aéronautique d'un coup d'oeil ! - Copyright ORBIFLY Décembre 2007 - Disclaimer

ORBIFLY MET'MAP TEAM :

Programmation & Développement : Alexandra Zaïnal
Conception & Développement : Baudouin d'Aumeries
Co-Programmation & Développement : Marc-Olivier Méhu
Soutien technique & logistique : Manuel Goepfert

Contact : metmap@orbifly.com




SOURCES & CREDITS :

   NOAA